Terminal Aerodrome Forecast
Issued by NWS Dodge City, KS

Home | Current Version | Previous Version | Text Only | Print | Product List | Glossary On
Versions: 1 2 3 4 5 6 7 8 9 10 11 12 13 14 15 16 17 18 19 20 21 22 23 24
000
FTUS43 KDDC 060520
TAFDDC
TAF
KDDC 060520Z 0606/0706 16009KT P6SM FEW250 WS003/15040KT
     FM061800 19020G28KT P6SM FEW250
     FM070500 17016G24KT P6SM FEW250 WS015/19030KT=

USA.gov is the U.S. government's official web portal to all federal, state and local government web resources and services.